Time;durP1;ratioP1;P1;durP2;ratioP2;P2;SDS_P1;SDS_P2;PMS_P1;PMS_P2;Temp;Humidity;BMP_temperature;BMP_pressure;BME280_temperature;BME280_humidity;BME280_pressure;Samples;Min_cycle;Max_cycle;Signal;HPM_P1;HPM_P2
2022/12/14 00:02:18;;;;;;;25.58;14.43;;;;;;;;;;4993062;28;94119;-66
2022/12/14 00:04:44;;;;;;;33.63;15.50;;;;;;;;;;5010011;28;92474;-67
2022/12/14 00:07:10;;;;;;;26.00;14.18;;;;;;;;;;5009568;28;95869;-66
2022/12/14 00:09:37;;;;;;;26.55;14.65;;;;;;;;;;4998368;28;93306;-66
2022/12/14 00:12:03;;;;;;;33.30;16.13;;;;;;;;;;4997117;28;93799;-66
2022/12/14 00:14:29;;;;;;;27.40;14.35;;;;;;;;;;4996692;28;94612;-66
2022/12/14 00:16:55;;;;;;;25.95;14.63;;;;;;;;;;4997789;28;93717;-67
2022/12/14 00:19:22;;;;;;;26.83;14.73;;;;;;;;;;4992811;28;94145;-67
2022/12/14 00:21:48;;;;;;;30.13;15.25;;;;;;;;;;5011283;28;94020;-67
2022/12/14 00:24:14;;;;;;;39.90;14.43;;;;;;;;;;5013553;28;91774;-66
2022/12/14 00:26:41;;;;;;;24.58;14.35;;;;;;;;;;5012317;28;93521;-66
2022/12/14 00:29:07;;;;;;;30.88;14.55;;;;;;;;;;5007247;28;93766;-67
2022/12/14 00:31:33;;;;;;;29.58;14.68;;;;;;;;;;5000705;28;94848;-66
2022/12/14 00:34:00;;;;;;;28.02;15.02;;;;;;;;;;4998926;28;95804;-67
2022/12/14 00:36:27;;;;;;;27.67;14.88;;;;;;;;;;4994773;28;93647;-67
2022/12/14 00:38:53;;;;;;;28.40;14.57;;;;;;;;;;4996706;28;94200;-67
2022/12/14 00:41:19;;;;;;;24.95;14.25;;;;;;;;;;4994583;28;93294;-66
2022/12/14 00:43:45;;;;;;;29.08;14.60;;;;;;;;;;5002733;28;92724;-66
2022/12/14 00:46:15;;;;;;;38.35;15.65;;;;;;;;;;4997119;28;92472;-66
2022/12/14 00:48:41;;;;;;;29.67;15.02;;;;;;;;;;5008317;28;93184;-66
2022/12/14 00:51:08;;;;;;;27.08;13.85;;;;;;;;;;4996097;28;92754;-67
2022/12/14 00:53:34;;;;;;;31.45;14.65;;;;;;;;;;4996295;28;96218;-66
2022/12/14 00:56:05;;;;;;;30.00;14.82;;;;;;;;;;5002731;28;96835;-66
2022/12/14 00:58:31;;;;;;;26.90;14.77;;;;;;;;;;4999510;28;92430;-66
2022/12/14 01:01:02;;;;;;;25.02;14.75;;;;;;;;;;5000787;28;94386;-66
2022/12/14 01:03:28;;;;;;;29.38;14.60;;;;;;;;;;4999799;28;93815;-66
2022/12/14 01:05:55;;;;;;;30.13;15.02;;;;;;;;;;4998940;28;93282;-66
2022/12/14 01:08:22;;;;;;;31.02;16.13;;;;;;;;;;5004180;28;93452;-66
2022/12/14 01:10:48;;;;;;;27.92;14.98;;;;;;;;;;5016300;28;92454;-66
2022/12/14 01:13:15;;;;;;;26.05;13.95;;;;;;;;;;5003436;28;93534;-66
2022/12/14 01:15:41;;;;;;;31.40;15.85;;;;;;;;;;5005825;28;94731;-66
2022/12/14 01:18:07;;;;;;;39.13;16.20;;;;;;;;;;5000841;28;93414;-66
2022/12/14 01:20:34;;;;;;;32.70;15.48;;;;;;;;;;5000118;28;95036;-66
2022/12/14 01:23:00;;;;;;;28.60;14.55;;;;;;;;;;4995596;28;92474;-66
2022/12/14 01:25:26;;;;;;;26.55;14.85;;;;;;;;;;4994103;28;93556;-66
2022/12/14 01:27:53;;;;;;;28.92;14.50;;;;;;;;;;4996405;28;94384;-66
2022/12/14 01:30:19;;;;;;;28.83;14.73;;;;;;;;;;5011991;28;92515;-67
2022/12/14 01:32:45;;;;;;;33.35;15.55;;;;;;;;;;4999639;28;94256;-66
2022/12/14 01:35:12;;;;;;;29.13;15.77;;;;;;;;;;4995526;28;93305;-66
2022/12/14 01:37:38;;;;;;;27.75;14.40;;;;;;;;;;4999930;28;92565;-66
2022/12/14 01:40:05;;;;;;;29.80;15.25;;;;;;;;;;4999192;28;93532;-66
2022/12/14 01:42:33;;;;;;;27.33;14.38;;;;;;;;;;5003694;28;94527;-67
2022/12/14 01:44:59;;;;;;;34.55;15.23;;;;;;;;;;5005025;28;94840;-66
2022/12/14 01:47:33;;;;;;;29.92;14.82;;;;;;;;;;5006397;28;93488;-66
2022/12/14 01:50:04;;;;;;;24.67;13.90;;;;;;;;;;4995639;28;92767;-66
2022/12/14 01:52:31;;;;;;;29.30;14.95;;;;;;;;;;4997942;28;93882;-66
2022/12/14 01:54:59;;;;;;;28.92;14.52;;;;;;;;;;4995103;28;93824;-66
2022/12/14 01:57:29;;;;;;;30.20;15.50;;;;;;;;;;4995799;28;92512;-66
2022/12/14 01:59:56;;;;;;;27.07;14.50;;;;;;;;;;5004860;28;93212;-66
2022/12/14 02:02:28;;;;;;;25.23;13.90;;;;;;;;;;5004644;28;92727;-66
2022/12/14 02:04:57;;;;;;;27.02;15.48;;;;;;;;;;4994207;28;92613;-66
2022/12/14 02:07:26;;;;;;;31.50;14.82;;;;;;;;;;5000707;28;93556;-66
2022/12/14 02:09:55;;;;;;;29.48;15.18;;;;;;;;;;5021380;28;95010;-66
2022/12/14 02:12:26;;;;;;;29.33;14.90;;;;;;;;;;5002494;28;95643;-66
2022/12/14 02:14:53;;;;;;;29.38;14.48;;;;;;;;;;4997817;28;93753;-66
2022/12/14 02:17:19;;;;;;;29.15;15.18;;;;;;;;;;5008073;28;92431;-66
2022/12/14 02:19:48;;;;;;;33.78;14.32;;;;;;;;;;5004706;28;93600;-66
2022/12/14 02:22:17;;;;;;;27.25;15.15;;;;;;;;;;4993391;28;93460;-66
2022/12/14 02:24:49;;;;;;;26.23;15.18;;;;;;;;;;4999206;27;94362;-66
2022/12/14 02:27:35;;;;;;;26.73;14.63;;;;;;;;;;4993250;28;92691;-66
2022/12/14 02:30:05;;;;;;;27.45;14.77;;;;;;;;;;4995224;28;93910;-66
2022/12/14 02:32:31;;;;;;;23.98;13.95;;;;;;;;;;4999520;28;93819;-66
2022/12/14 02:35:10;;;;;;;27.60;14.57;;;;;;;;;;5000311;27;96150;-65
2022/12/14 02:37:41;;;;;;;30.63;14.90;;;;;;;;;;5014414;28;92438;-66
2022/12/14 02:40:11;;;;;;;26.73;14.55;;;;;;;;;;4994893;28;94573;-66
2022/12/14 02:42:45;;;;;;;27.95;15.48;;;;;;;;;;5005974;28;93770;-66
2022/12/14 02:45:17;;;;;;;27.85;14.35;;;;;;;;;;4995890;28;92528;-66
2022/12/14 02:47:43;;;;;;;23.73;13.13;;;;;;;;;;5003662;28;93237;-66
2022/12/14 02:50:12;;;;;;;31.95;15.27;;;;;;;;;;4999853;28;92408;-65
2022/12/14 02:52:42;;;;;;;24.65;14.45;;;;;;;;;;4995060;28;94308;-65
2022/12/14 02:55:14;;;;;;;29.23;14.73;;;;;;;;;;4994100;28;93732;-65
2022/12/14 02:57:51;;;;;;;27.63;14.50;;;;;;;;;;4994255;28;92809;-65
2022/12/14 03:00:17;;;;;;;29.10;14.32;;;;;;;;;;4992898;28;94751;-65
2022/12/14 03:02:44;;;;;;;27.58;14.57;;;;;;;;;;5001937;28;94817;-65
2022/12/14 03:05:11;;;;;;;28.35;14.77;;;;;;;;;;4994076;28;92709;-65
2022/12/14 03:07:48;;;;;;;27.98;14.63;;;;;;;;;;4995517;28;94219;-65
2022/12/14 03:10:29;;;;;;;22.88;13.02;;;;;;;;;;5001087;28;96089;-65
2022/12/14 03:13:00;;;;;;;25.25;13.50;;;;;;;;;;5006234;28;92996;-65
2022/12/14 03:15:28;;;;;;;30.17;15.32;;;;;;;;;;5001101;28;94545;-66
2022/12/14 03:17:56;;;;;;;25.83;14.35;;;;;;;;;;4997906;28;91748;-65
2022/12/14 03:20:24;;;;;;;30.20;14.43;;;;;;;;;;4999244;28;94073;-65
2022/12/14 03:23:00;;;;;;;30.58;14.88;;;;;;;;;;4996391;28;94465;-65
2022/12/14 03:25:38;;;;;;;24.45;13.52;;;;;;;;;;4995724;28;94939;-65
2022/12/14 03:28:12;;;;;;;24.77;14.00;;;;;;;;;;5000381;28;95682;-65
2022/12/14 03:30:40;;;;;;;26.10;13.75;;;;;;;;;;5005193;28;93837;-65
2022/12/14 03:33:26;;;;;;;27.77;14.02;;;;;;;;;;5002401;28;92853;-65
2022/12/14 03:35:57;;;;;;;28.50;15.73;;;;;;;;;;5005160;28;94452;-65
2022/12/14 03:38:29;;;;;;;23.87;13.80;;;;;;;;;;4994147;27;92547;-67
2022/12/14 03:41:07;;;;;;;31.58;15.20;;;;;;;;;;5016096;28;93350;-66
2022/12/14 03:43:35;;;;;;;26.40;14.35;;;;;;;;;;4997922;28;92841;-65
2022/12/14 03:46:06;;;;;;;28.13;14.32;;;;;;;;;;5006867;28;93264;-65
2022/12/14 03:48:32;;;;;;;;;;;;;;;;;;5004147;28;94968;-65
2022/12/14 03:50:59;;;;;;;25.75;13.32;;;;;;;;;;4997755;28;125199;-65
2022/12/14 03:53:41;;;;;;;27.10;14.40;;;;;;;;;;5016777;28;92471;-65
2022/12/14 03:56:28;;;;;;;22.13;13.00;;;;;;;;;;4996564;28;93274;-65
2022/12/14 03:59:00;;;;;;;27.40;14.18;;;;;;;;;;4995527;28;92414;-65
2022/12/14 04:01:29;;;;;;;27.02;13.70;;;;;;;;;;4992850;28;93118;-65
2022/12/14 04:03:58;;;;;;;29.08;15.05;;;;;;;;;;4993206;28;93475;-65
2022/12/14 04:06:28;;;;;;;25.02;13.80;;;;;;;;;;4992966;28;92485;-65
2022/12/14 04:09:03;;;;;;;23.33;13.30;;;;;;;;;;5004272;28;93293;-65
2022/12/14 04:20:21;;;;;;;27.80;13.77;;;;;;;;;;4984150;28;92720;-65
2022/12/14 04:22:51;;;;;;;27.55;13.35;;;;;;;;;;4981461;28;93355;-65
2022/12/14 04:29:55;;;;;;;24.60;14.13;;;;;;;;;;4970568;28;92955;-64
2022/12/14 04:31:02;;;;;;;25.80;13.82;;;;;;;;;;4971869;28;93266;-65
2022/12/14 04:33:48;;;;;;;25.52;13.95;;;;;;;;;;4979493;28;94179;-65
2022/12/14 04:36:28;;;;;;;31.20;13.45;;;;;;;;;;4966244;28;92408;-65
2022/12/14 04:39:05;;;;;;;21.27;12.65;;;;;;;;;;4982872;28;92591;-65
2022/12/14 04:41:35;;;;;;;25.17;14.13;;;;;;;;;;4982727;28;94745;-67
2022/12/14 04:44:04;;;;;;;25.88;13.63;;;;;;;;;;4981356;28;95140;-65
2022/12/14 04:46:32;;;;;;;30.90;15.05;;;;;;;;;;4997373;28;93518;-65
2022/12/14 04:49:27;;;;;;;27.65;13.73;;;;;;;;;;5012570;28;92469;-64
2022/12/14 04:51:53;;;;;;;27.80;14.63;;;;;;;;;;4996419;28;93424;-65
2022/12/14 04:54:27;;;;;;;31.50;13.98;;;;;;;;;;5013390;28;93403;-65
2022/12/14 04:57:03;;;;;;;30.63;14.73;;;;;;;;;;4992150;28;92405;-63
2022/12/14 04:59:29;;;;;;;29.42;14.45;;;;;;;;;;4992899;28;93214;-65
2022/12/14 05:02:01;;;;;;;24.77;14.35;;;;;;;;;;5000847;28;93103;-65
2022/12/14 05:04:27;;;;;;;26.40;13.95;;;;;;;;;;4995878;28;93754;-65
2022/12/14 05:06:56;;;;;;;27.67;14.93;;;;;;;;;;5006676;28;94521;-64
2022/12/14 05:09:31;;;;;;;29.35;14.80;;;;;;;;;;4997355;28;94922;-65
2022/12/14 05:12:10;;;;;;;29.60;14.25;;;;;;;;;;4991669;28;95550;-64
2022/12/14 05:14:39;;;;;;;25.95;14.38;;;;;;;;;;4992718;28;93586;-65
2022/12/14 05:17:06;;;;;;;29.83;15.07;;;;;;;;;;4999516;28;92774;-64
2022/12/14 05:19:35;;;;;;;25.08;14.27;;;;;;;;;;4994666;28;94478;-64
2022/12/14 05:22:04;;;;;;;28.38;14.85;;;;;;;;;;4993216;28;94871;-65
2022/12/14 05:24:31;;;;;;;26.63;14.60;;;;;;;;;;4992501;28;92473;-65
2022/12/14 05:26:57;;;;;;;29.60;15.77;;;;;;;;;;4996437;28;93053;-65
2022/12/14 05:29:23;;;;;;;25.45;14.80;;;;;;;;;;4991812;28;92473;-65
2022/12/14 05:31:50;;;;;;;30.67;15.50;;;;;;;;;;4995900;28;93169;-65
2022/12/14 05:34:17;;;;;;;33.42;14.70;;;;;;;;;;4991270;28;95874;-65
2022/12/14 05:36:43;;;;;;;30.77;14.82;;;;;;;;;;4993692;28;92554;-65
2022/12/14 05:39:09;;;;;;;28.92;15.55;;;;;;;;;;5011502;28;93535;-65
2022/12/14 05:41:35;;;;;;;29.25;14.00;;;;;;;;;;5013281;28;93622;-65
2022/12/14 05:44:02;;;;;;;26.65;14.43;;;;;;;;;;4998744;28;92563;-67
2022/12/14 05:46:28;;;;;;;29.20;15.35;;;;;;;;;;5007565;28;94621;-65
2022/12/14 05:48:54;;;;;;;26.92;15.20;;;;;;;;;;5001468;28;93464;-67
2022/12/14 05:51:21;;;;;;;27.85;13.98;;;;;;;;;;5008108;28;93198;-66
2022/12/14 05:53:47;;;;;;;29.73;14.35;;;;;;;;;;5000367;28;93665;-65
2022/12/14 05:56:13;;;;;;;27.35;14.75;;;;;;;;;;5010675;28;92526;-65
2022/12/14 05:58:40;;;;;;;28.95;14.02;;;;;;;;;;4994501;28;95013;-65
2022/12/14 06:01:07;;;;;;;26.20;13.68;;;;;;;;;;5001300;28;94369;-65
2022/12/14 06:03:40;;;;;;;30.20;15.23;;;;;;;;;;5007666;28;92779;-65
2022/12/14 06:06:08;;;;;;;28.70;14.40;;;;;;;;;;4995467;28;93375;-65
2022/12/14 06:08:36;;;;;;;28.45;14.65;;;;;;;;;;5001667;28;93715;-65
2022/12/14 06:11:03;;;;;;;27.83;14.23;;;;;;;;;;5001279;28;92737;-65
2022/12/14 06:13:29;;;;;;;26.23;14.07;;;;;;;;;;5006502;28;93554;-65
2022/12/14 06:16:05;;;;;;;27.20;15.00;;;;;;;;;;5007255;28;91699;-65
2022/12/14 06:18:31;;;;;;;26.42;13.73;;;;;;;;;;5002452;28;93150;-65
2022/12/14 06:20:58;;;;;;;29.40;14.80;;;;;;;;;;4994849;28;93499;-66
2022/12/14 06:23:24;;;;;;;26.92;14.00;;;;;;;;;;5002836;28;96652;-65
2022/12/14 06:25:54;;;;;;;23.33;12.95;;;;;;;;;;5013684;28;95535;-65
2022/12/14 06:28:21;;;;;;;28.95;14.35;;;;;;;;;;4993916;28;93471;-65
2022/12/14 06:30:47;;;;;;;28.02;13.93;;;;;;;;;;4999732;28;94580;-65
2022/12/14 06:33:14;;;;;;;35.03;14.75;;;;;;;;;;4996926;28;95197;-65
2022/12/14 06:35:43;;;;;;;24.38;13.48;;;;;;;;;;5005048;28;92666;-65
2022/12/14 06:38:10;;;;;;;31.77;14.48;;;;;;;;;;5013269;28;93533;-65
2022/12/14 06:40:37;;;;;;;27.55;14.95;;;;;;;;;;5014112;28;92964;-65
2022/12/14 06:43:03;;;;;;;27.52;13.43;;;;;;;;;;5010099;28;92753;-65
2022/12/14 06:45:29;;;;;;;31.52;13.77;;;;;;;;;;4999070;28;93084;-65
2022/12/14 06:47:57;;;;;;;26.90;14.65;;;;;;;;;;5009505;28;96502;-65
2022/12/14 06:50:24;;;;;;;23.85;12.90;;;;;;;;;;5004026;28;92449;-65
2022/12/14 06:52:50;;;;;;;26.23;12.52;;;;;;;;;;4995999;28;93224;-65
2022/12/14 06:55:17;;;;;;;28.73;14.60;;;;;;;;;;4994277;28;92385;-65
2022/12/14 06:57:43;;;;;;;27.92;13.73;;;;;;;;;;5004347;28;93517;-65
2022/12/14 07:00:11;;;;;;;28.38;14.05;;;;;;;;;;5001825;28;92566;-65
2022/12/14 07:02:37;;;;;;;27.50;13.88;;;;;;;;;;5010838;28;92757;-65
2022/12/14 07:05:05;;;;;;;27.35;13.27;;;;;;;;;;5004742;28;94318;-65
2022/12/14 07:07:32;;;;;;;24.15;12.45;;;;;;;;;;4995770;28;93560;-65
2022/12/14 07:09:58;;;;;;;28.30;13.90;;;;;;;;;;4999723;28;92742;-65
2022/12/14 07:12:26;;;;;;;28.92;13.40;;;;;;;;;;4993324;28;94908;-65
2022/12/14 07:14:53;;;;;;;30.23;13.68;;;;;;;;;;4996644;28;93245;-65
2022/12/14 07:17:19;;;;;;;30.63;13.73;;;;;;;;;;4998092;28;93184;-65
2022/12/14 07:19:46;;;;;;;25.83;12.68;;;;;;;;;;5010561;28;93730;-65
2022/12/14 07:22:14;;;;;;;26.48;13.68;;;;;;;;;;5005587;28;92516;-65
2022/12/14 07:24:40;;;;;;;27.83;14.27;;;;;;;;;;4999983;28;92555;-65
2022/12/14 07:27:06;;;;;;;28.17;13.07;;;;;;;;;;4997581;28;93821;-65
2022/12/14 07:29:33;;;;;;;24.65;13.38;;;;;;;;;;4993146;28;91800;-65
2022/12/14 07:32:00;;;;;;;24.92;12.63;;;;;;;;;;4997522;28;94373;-65
2022/12/14 07:34:26;;;;;;;34.45;13.50;;;;;;;;;;4995316;28;93520;-65
2022/12/14 07:36:53;;;;;;;26.55;12.93;;;;;;;;;;4997883;28;94953;-65
2022/12/14 07:39:20;;;;;;;22.88;12.90;;;;;;;;;;5000181;28;93505;-65
2022/12/14 07:41:46;;;;;;;30.15;14.02;;;;;;;;;;5013913;28;92694;-65
2022/12/14 07:44:13;;;;;;;25.58;13.25;;;;;;;;;;5003352;28;93712;-65
2022/12/14 07:46:39;;;;;;;29.23;15.00;;;;;;;;;;4999361;28;93713;-65
2022/12/14 07:49:06;;;;;;;27.95;14.13;;;;;;;;;;5004279;28;92444;-65
2022/12/14 07:51:35;;;;;;;37.97;16.60;;;;;;;;;;5012307;28;93636;-65
2022/12/14 07:54:02;;;;;;;37.10;16.15;;;;;;;;;;5003154;28;92679;-65
2022/12/14 07:56:30;;;;;;;37.97;19.00;;;;;;;;;;5009673;28;92748;-65
2022/12/14 07:58:57;;;;;;;38.35;18.58;;;;;;;;;;5001576;28;93292;-65
2022/12/14 08:01:25;;;;;;;47.97;19.88;;;;;;;;;;4999691;28;95403;-65
2022/12/14 08:03:53;;;;;;;37.97;17.23;;;;;;;;;;4994864;28;95634;-65
2022/12/14 08:06:20;;;;;;;37.53;17.95;;;;;;;;;;5004516;28;93939;-65
2022/12/14 08:08:47;;;;;;;36.85;19.17;;;;;;;;;;5006676;28;92936;-64
2022/12/14 08:11:15;;;;;;;38.92;20.35;;;;;;;;;;5001747;28;95278;-65
2022/12/14 08:13:42;;;;;;;36.88;19.15;;;;;;;;;;5003907;28;93621;-65
2022/12/14 08:16:09;;;;;;;39.55;20.15;;;;;;;;;;4991100;28;92975;-65
2022/12/14 08:18:36;;;;;;;41.28;22.23;;;;;;;;;;4995176;28;94272;-65
2022/12/14 08:21:04;;;;;;;37.65;20.85;;;;;;;;;;5009208;28;92568;-65
2022/12/14 08:23:30;;;;;;;37.47;19.17;;;;;;;;;;5001634;28;92968;-65
2022/12/14 08:25:58;;;;;;;37.33;20.42;;;;;;;;;;4994044;28;95850;-64
2022/12/14 08:28:25;;;;;;;42.90;19.83;;;;;;;;;;4997200;28;92569;-65
2022/12/14 08:30:52;;;;;;;38.08;17.95;;;;;;;;;;5006730;28;93568;-65
2022/12/14 08:33:19;;;;;;;29.83;16.50;;;;;;;;;;5003625;28;93441;-64
2022/12/14 08:35:45;;;;;;;32.33;15.70;;;;;;;;;;4998491;28;94093;-65
2022/12/14 08:38:11;;;;;;;29.08;15.98;;;;;;;;;;5007017;28;93880;-65
2022/12/14 08:40:38;;;;;;;34.35;15.68;;;;;;;;;;4999456;28;93455;-66
2022/12/14 08:43:05;;;;;;;33.20;15.85;;;;;;;;;;4998778;28;93581;-65
2022/12/14 08:45:31;;;;;;;29.80;15.88;;;;;;;;;;4996646;28;93181;-65
2022/12/14 08:47:58;;;;;;;29.00;15.73;;;;;;;;;;4996124;28;92900;-65
2022/12/14 08:50:25;;;;;;;48.67;19.95;;;;;;;;;;4995733;28;94763;-66
2022/12/14 08:52:52;;;;;;;78.82;39.20;;;;;;;;;;4992576;28;93435;-66
2022/12/14 08:55:19;;;;;;;96.43;41.95;;;;;;;;;;4993005;28;94105;-65
2022/12/14 08:57:53;;;;;;;67.57;32.08;;;;;;;;;;5003930;28;93284;-65
2022/12/14 09:00:19;;;;;;;39.88;17.60;;;;;;;;;;4997380;28;94538;-64
2022/12/14 09:02:48;;;;;;;31.65;15.90;;;;;;;;;;4995278;28;92460;-65
2022/12/14 09:05:15;;;;;;;28.63;15.32;;;;;;;;;;4992214;28;93421;-66
2022/12/14 09:07:41;;;;;;;29.30;13.93;;;;;;;;;;4994517;28;91761;-64
2022/12/14 09:10:07;;;;;;;23.73;12.95;;;;;;;;;;4992709;28;92564;-65
2022/12/14 09:12:35;;;;;;;31.75;13.70;;;;;;;;;;5001016;28;93489;-65
2022/12/14 09:15:01;;;;;;;26.02;14.50;;;;;;;;;;4994566;28;94891;-65
2022/12/14 09:17:27;;;;;;;26.67;13.52;;;;;;;;;;5010980;28;95686;-65
2022/12/14 09:19:53;;;;;;;29.60;13.45;;;;;;;;;;5000369;28;93567;-64
2022/12/14 09:22:20;;;;;;;24.08;13.00;;;;;;;;;;5003838;28;92472;-64
2022/12/14 09:24:48;;;;;;;28.42;13.45;;;;;;;;;;5001158;28;93094;-65
2022/12/14 09:27:15;;;;;;;22.35;12.23;;;;;;;;;;5006492;28;92825;-66
2022/12/14 09:29:41;;;;;;;25.75;12.90;;;;;;;;;;5000608;28;94237;-65
2022/12/14 09:32:07;;;;;;;28.73;12.93;;;;;;;;;;5007581;28;92732;-66
2022/12/14 09:34:34;;;;;;;23.05;12.85;;;;;;;;;;5017103;27;93474;-65
2022/12/14 09:37:03;;;;;;;26.58;13.75;;;;;;;;;;5009723;28;94166;-66
2022/12/14 09:39:30;;;;;;;21.25;12.70;;;;;;;;;;4996739;28;96841;-66
2022/12/14 09:41:56;;;;;;;22.95;13.10;;;;;;;;;;5002846;28;93650;-65
2022/12/14 09:44:29;;;;;;;35.63;14.30;;;;;;;;;;5000256;28;93289;-64
2022/12/14 09:47:02;;;;;;;30.50;14.75;;;;;;;;;;5004948;28;94567;-65
2022/12/14 09:49:28;;;;;;;26.42;14.23;;;;;;;;;;4999175;28;93677;-65
2022/12/14 09:51:56;;;;;;;30.42;14.65;;;;;;;;;;5004091;28;93544;-64
2022/12/14 09:54:25;;;;;;;30.52;14.70;;;;;;;;;;5001686;28;93254;-65
2022/12/14 09:56:53;;;;;;;32.33;13.88;;;;;;;;;;4998614;28;93214;-65
2022/12/14 09:59:19;;;;;;;26.83;13.35;;;;;;;;;;5003982;28;93800;-65
2022/12/14 10:01:51;;;;;;;28.40;14.05;;;;;;;;;;5007698;28;92477;-63
2022/12/14 10:04:43;;;;;;;24.75;14.00;;;;;;;;;;5014037;28;94878;-63
2022/12/14 10:07:15;;;;;;;25.95;13.77;;;;;;;;;;4996746;28;93875;-64
2022/12/14 10:09:47;;;;;;;27.17;13.43;;;;;;;;;;5000216;28;92444;-64
2022/12/14 10:12:23;;;;;;;27.08;13.88;;;;;;;;;;4994958;28;94426;-63
2022/12/14 10:15:04;;;;;;;27.20;14.15;;;;;;;;;;4995594;28;94514;-64
2022/12/14 10:17:33;;;;;;;36.20;13.38;;;;;;;;;;5001729;28;93362;-64
2022/12/14 10:20:03;;;;;;;26.98;13.05;;;;;;;;;;5015097;28;92364;-65
2022/12/14 10:22:36;;;;;;;26.90;12.80;;;;;;;;;;5014592;28;91974;-65
2022/12/14 10:25:08;;;;;;;28.00;13.95;;;;;;;;;;5013353;28;92746;-64
2022/12/14 10:27:35;;;;;;;34.92;14.32;;;;;;;;;;4994693;28;94343;-64
2022/12/14 10:30:22;;;;;;;26.35;13.65;;;;;;;;;;4995452;28;95776;-64
2022/12/14 10:32:52;;;;;;;23.85;13.18;;;;;;;;;;4994306;28;93600;-63
2022/12/14 10:35:30;;;;;;;25.08;12.88;;;;;;;;;;5006273;28;92811;-63
2022/12/14 10:37:57;;;;;;;24.10;12.18;;;;;;;;;;4995744;28;93286;-64
2022/12/14 10:40:27;;;;;;;21.25;12.40;;;;;;;;;;4994782;28;93711;-64
2022/12/14 10:43:02;;;;;;;29.65;12.68;;;;;;;;;;5006294;28;93825;-65
2022/12/14 10:45:47;;;;;;;21.13;11.00;;;;;;;;;;5011937;28;93429;-66
2022/12/14 10:48:31;;;;;;;22.85;12.10;;;;;;;;;;5012012;28;93180;-65
2022/12/14 10:50:58;;;;;;;21.35;12.00;;;;;;;;;;5007850;28;92461;-65
2022/12/14 10:53:30;;;;;;;21.73;11.93;;;;;;;;;;5002696;28;93666;-66
2022/12/14 10:56:07;;;;;;;20.85;11.35;;;;;;;;;;4995186;28;95000;-65
2022/12/14 10:58:34;;;;;;;24.10;11.38;;;;;;;;;;5003369;28;94653;-66
2022/12/14 11:01:00;;;;;;;27.58;11.13;;;;;;;;;;5003482;28;93474;-65
2022/12/14 11:03:27;;;;;;;21.30;11.80;;;;;;;;;;5000351;28;92779;-65
2022/12/14 11:05:57;;;;;;;20.25;11.52;;;;;;;;;;4994195;28;94244;-65
2022/12/14 11:08:37;;;;;;;19.10;11.70;;;;;;;;;;4994647;28;93456;-66
2022/12/14 11:11:07;;;;;;;16.87;11.43;;;;;;;;;;4998283;28;92426;-65
2022/12/14 11:13:45;;;;;;;26.08;13.15;;;;;;;;;;5000686;28;94255;-66
2022/12/14 11:16:25;;;;;;;23.92;14.35;;;;;;;;;;5010592;28;94410;-66
2022/12/14 11:19:00;;;;;;;23.95;13.43;;;;;;;;;;5013598;28;94526;-66
2022/12/14 11:21:33;;;;;;;44.67;22.27;;;;;;;;;;5010569;28;96083;-66
2022/12/14 11:24:00;;;;;;;23.08;12.57;;;;;;;;;;5013475;28;92401;-65
2022/12/14 11:26:29;;;;;;;20.98;12.63;;;;;;;;;;5006801;28;93970;-66
2022/12/14 11:28:55;;;;;;;20.52;12.40;;;;;;;;;;5001316;28;93388;-66
2022/12/14 11:31:32;;;;;;;19.83;12.27;;;;;;;;;;5000075;28;92977;-67
2022/12/14 11:33:59;;;;;;;23.58;11.98;;;;;;;;;;5003694;28;94581;-66
2022/12/14 11:36:39;;;;;;;19.55;11.63;;;;;;;;;;5012549;28;93738;-66
2022/12/14 11:39:14;;;;;;;18.90;12.27;;;;;;;;;;5008986;28;91864;-66
2022/12/14 11:41:40;;;;;;;18.05;11.48;;;;;;;;;;4993715;28;94433;-67
2022/12/14 11:44:12;;;;;;;17.88;11.35;;;;;;;;;;5000027;28;92688;-67
2022/12/14 11:46:40;;;;;;;23.90;12.48;;;;;;;;;;4999258;28;94763;-66
2022/12/14 11:49:39;;;;;;;20.08;12.38;;;;;;;;;;5013475;28;94452;-67
2022/12/14 11:52:13;;;;;;;19.85;12.05;;;;;;;;;;5006806;28;94110;-67
2022/12/14 11:54:41;;;;;;;18.50;12.13;;;;;;;;;;5011228;28;93207;-67
2022/12/14 11:57:14;;;;;;;21.33;12.32;;;;;;;;;;4995879;28;93815;-67
2022/12/14 11:59:45;;;;;;;19.20;12.07;;;;;;;;;;4993398;28;92568;-66
2022/12/14 12:02:32;;;;;;;17.77;12.27;;;;;;;;;;4994800;28;92650;-67
2022/12/14 12:05:06;;;;;;;24.15;12.68;;;;;;;;;;4990935;28;92224;-67
2022/12/14 12:07:35;;;;;;;21.45;12.90;;;;;;;;;;4993427;28;92458;-66
2022/12/14 12:10:14;;;;;;;19.85;14.07;;;;;;;;;;4997826;28;94887;-67
2022/12/14 12:12:46;;;;;;;20.63;14.43;;;;;;;;;;5010243;28;94960;-66
2022/12/14 12:15:24;;;;;;;20.85;14.30;;;;;;;;;;5012622;28;95797;-66
2022/12/14 12:18:10;;;;;;;21.48;13.35;;;;;;;;;;5008337;28;93723;-66
2022/12/14 12:20:39;;;;;;;18.75;12.88;;;;;;;;;;4999437;28;92481;-67
2022/12/14 12:23:10;;;;;;;18.20;13.33;;;;;;;;;;4998215;28;93329;-67
2022/12/14 12:25:37;;;;;;;16.13;12.25;;;;;;;;;;5012706;28;93887;-67
2022/12/14 12:28:13;;;;;;;19.98;12.55;;;;;;;;;;5013418;28;93270;-67
2022/12/14 12:30:42;;;;;;;18.13;12.30;;;;;;;;;;4997172;28;93855;-67
2022/12/14 12:33:19;;;;;;;21.60;12.95;;;;;;;;;;4997195;28;92871;-68
2022/12/14 12:35:49;;;;;;;21.63;12.05;;;;;;;;;;5002014;28;94230;-67
2022/12/14 12:38:18;;;;;;;18.75;13.55;;;;;;;;;;5011351;28;96184;-68
2022/12/14 12:40:44;;;;;;;18.27;12.10;;;;;;;;;;4998535;28;92715;-68
2022/12/14 12:43:14;;;;;;;18.02;12.18;;;;;;;;;;4992645;28;94270;-68
2022/12/14 12:45:41;;;;;;;;;;;;;;;;;;5015808;28;94474;-68
2022/12/14 12:48:13;;;;;;;19.17;12.52;;;;;;;;;;5014809;28;123550;-67
2022/12/14 12:50:42;;;;;;;18.52;12.90;;;;;;;;;;5014355;28;94540;-67
2022/12/14 12:53:20;;;;;;;16.90;12.20;;;;;;;;;;5016062;28;92457;-67
2022/12/14 12:55:52;;;;;;;18.30;12.18;;;;;;;;;;5008169;28;93395;-67
2022/12/14 12:58:21;;;;;;;19.40;11.57;;;;;;;;;;4999062;28;93485;-68
2022/12/14 13:00:50;;;;;;;15.05;10.98;;;;;;;;;;5005710;28;93836;-67
2022/12/14 13:03:25;;;;;;;17.10;10.82;;;;;;;;;;4993798;28;96355;-67
2022/12/14 13:05:53;;;;;;;18.73;11.20;;;;;;;;;;5002480;28;93807;-67
2022/12/14 13:08:19;;;;;;;18.17;12.30;;;;;;;;;;4998829;28;92798;-67
2022/12/14 13:10:46;;;;;;;20.05;11.02;;;;;;;;;;4995851;28;94330;-67
2022/12/14 13:13:34;;;;;;;13.43;9.00;;;;;;;;;;4995534;28;93089;-67
2022/12/14 13:16:21;;;;;;;16.02;9.48;;;;;;;;;;5005229;28;93434;-67
2022/12/14 13:18:55;;;;;;;14.48;8.90;;;;;;;;;;5016096;28;93580;-67
2022/12/14 13:21:44;;;;;;;12.52;8.25;;;;;;;;;;5007449;28;91754;-67
2022/12/14 13:24:16;;;;;;;14.18;8.60;;;;;;;;;;4999833;28;92716;-66
2022/12/14 13:26:58;;;;;;;15.75;9.25;;;;;;;;;;4995073;28;92515;-67
2022/12/14 13:29:37;;;;;;;15.45;8.85;;;;;;;;;;4995705;28;94821;-67
2022/12/14 13:32:09;;;;;;;19.42;8.93;;;;;;;;;;4999312;28;95548;-67
2022/12/14 13:34:40;;;;;;;16.95;9.30;;;;;;;;;;4999780;28;92598;-67
2022/12/14 13:37:15;;;;;;;16.83;9.93;;;;;;;;;;5016692;28;93210;-67
2022/12/14 13:39:45;;;;;;;16.40;9.48;;;;;;;;;;5016198;28;93546;-67
2022/12/14 13:42:24;;;;;;;25.48;9.18;;;;;;;;;;5012658;28;92571;-66
2022/12/14 13:44:55;;;;;;;21.73;9.55;;;;;;;;;;5001531;28;93796;-67
2022/12/14 13:47:38;;;;;;;17.73;9.77;;;;;;;;;;5016832;28;94052;-67
2022/12/14 13:50:06;;;;;;;17.70;10.13;;;;;;;;;;5006454;28;92497;-67
2022/12/14 13:52:56;;;;;;;17.80;9.75;;;;;;;;;;5000214;28;92514;-67
2022/12/14 13:55:28;;;;;;;18.02;10.13;;;;;;;;;;5016807;28;95803;-67
2022/12/14 13:58:16;;;;;;;18.88;10.10;;;;;;;;;;5015612;28;95682;-66
2022/12/14 14:00:48;;;;;;;18.17;10.20;;;;;;;;;;5014372;28;93811;-67
2022/12/14 14:03:47;;;;;;;20.17;9.75;;;;;;;;;;5008389;28;93814;-67
2022/12/14 14:06:18;;;;;;;31.77;10.85;;;;;;;;;;4979239;28;93224;-67
2022/12/14 14:08:48;;;;;;;21.52;10.90;;;;;;;;;;5015376;28;92653;-66
2022/12/14 14:11:20;;;;;;;18.48;10.75;;;;;;;;;;5002914;28;92588;-67
2022/12/14 14:14:10;;;;;;;33.13;13.82;;;;;;;;;;4994110;28;93240;-67
2022/12/14 14:16:56;;;;;;;16.08;10.27;;;;;;;;;;5009290;28;94831;-67
2022/12/14 14:19:24;;;;;;;17.52;9.95;;;;;;;;;;5015298;28;92427;-66
2022/12/14 14:22:09;;;;;;;20.92;10.23;;;;;;;;;;5009156;28;95765;-67
2022/12/14 14:24:55;;;;;;;32.08;10.30;;;;;;;;;;4995330;28;92386;-67
2022/12/14 14:27:23;;;;;;;20.35;11.95;;;;;;;;;;4995385;28;94207;-67
2022/12/14 14:29:50;;;;;;;16.65;10.63;;;;;;;;;;4993669;28;93431;-67
2022/12/14 14:32:22;;;;;;;27.65;10.68;;;;;;;;;;4995939;28;92505;-66
2022/12/14 14:34:49;;;;;;;18.38;11.00;;;;;;;;;;5006066;28;94003;-66
2022/12/14 14:37:19;;;;;;;18.80;10.68;;;;;;;;;;4993402;28;95066;-66
2022/12/14 14:40:04;;;;;;;18.92;10.80;;;;;;;;;;4997668;28;91748;-66
2022/12/14 14:42:50;;;;;;;20.13;11.70;;;;;;;;;;4997177;28;93707;-65
2022/12/14 14:45:28;;;;;;;20.42;11.40;;;;;;;;;;4999165;28;92551;-68
2022/12/14 14:47:56;;;;;;;20.88;11.63;;;;;;;;;;5006813;28;94986;-67
2022/12/14 14:50:25;;;;;;;20.70;11.80;;;;;;;;;;5014731;28;93440;-67